THY2GN LTFM-EGLL
Flight info
| Callsign | THY2GN |
|---|---|
| Flight time | N/A |
| Altitude | 36000 |
| Route | TUDBU Q26 ETUBA DCT NAVOD DCT INVED DCT BEGLA DCT DEXIT/N0467F380 DCT INBED DCT BOMBI DCT ADKUV DCT BUB L608 LOGAN |
| Aircraft | B77W/H-SDE1E2E3FGHIJ2J3J4J5M1RWXYZ/LB1D1 |
Departure
| Time | 2026-05-01 08:48 |
|---|---|
| Airport | İstanbul Airport (LTFM) |
Arrival
| Time | N/A |
|---|---|
| Airport | London Heathrow Airport (EGLL) |
| Time | Latitude | Longitude | Altitude | Speed | Heading |
|---|---|---|---|---|---|
| 2026-05-01 08:16 | 41.26796 | 28.74366 | 329 ft | 0 kts | 269° |
| 2026-05-01 08:35 | 41.26796 | 28.74374 | 329 ft | 2 kts | 269° |
| 2026-05-01 08:35 | 41.26796 | 28.74394 | 329 ft | 2 kts | 269° |
| 2026-05-01 08:36 | 41.26796 | 28.74414 | 329 ft | 2 kts | 280° |
| 2026-05-01 08:36 | 41.26791 | 28.74433 | 329 ft | 2 kts | 296° |
| 2026-05-01 08:36 | 41.26783 | 28.74450 | 329 ft | 2 kts | 309° |
| 2026-05-01 08:36 | 41.26773 | 28.74463 | 329 ft | 2 kts | 323° |
| 2026-05-01 08:37 | 41.26760 | 28.74474 | 329 ft | 2 kts | 337° |
| 2026-05-01 08:37 | 41.26746 | 28.74480 | 329 ft | 2 kts | 351° |
| 2026-05-01 08:37 | 41.26737 | 28.74481 | 329 ft | 1 kts | 360° |
| 2026-05-01 08:37 | 41.26735 | 28.74481 | 329 ft | 0 kts | 0° |
| 2026-05-01 08:40 | 41.26744 | 28.74480 | 329 ft | 3 kts | 354° |
| 2026-05-01 08:40 | 41.26791 | 28.74472 | 329 ft | 9 kts | 353° |
| 2026-05-01 08:41 | 41.26845 | 28.74466 | 329 ft | 0 kts | 355° |
| 2026-05-01 08:41 | 41.26858 | 28.74464 | 329 ft | 5 kts | 355° |
| 2026-05-01 08:41 | 41.26922 | 28.74459 | 329 ft | 12 kts | 2° |
| 2026-05-01 08:41 | 41.26971 | 28.74551 | 327 ft | 13 kts | 89° |
| 2026-05-01 08:42 | 41.26973 | 28.74697 | 327 ft | 16 kts | 89° |
| 2026-05-01 08:42 | 41.26973 | 28.74840 | 327 ft | 14 kts | 89° |
| 2026-05-01 08:42 | 41.26975 | 28.74971 | 327 ft | 13 kts | 88° |
| 2026-05-01 08:42 | 41.26977 | 28.75092 | 326 ft | 12 kts | 91° |
| 2026-05-01 08:43 | 41.26976 | 28.75206 | 324 ft | 9 kts | 89° |
| 2026-05-01 08:43 | 41.26963 | 28.75276 | 324 ft | 7 kts | 140° |
| 2026-05-01 08:43 | 41.26895 | 28.75294 | 325 ft | 13 kts | 177° |
| 2026-05-01 08:43 | 41.26794 | 28.75299 | 326 ft | 14 kts | 178° |
| 2026-05-01 08:44 | 41.26698 | 28.75301 | 327 ft | 13 kts | 179° |
| 2026-05-01 08:44 | 41.26605 | 28.75305 | 327 ft | 12 kts | 179° |
| 2026-05-01 08:44 | 41.26517 | 28.75308 | 328 ft | 12 kts | 178° |
| 2026-05-01 08:44 | 41.26428 | 28.75312 | 328 ft | 12 kts | 178° |
| 2026-05-01 08:45 | 41.26344 | 28.75326 | 329 ft | 11 kts | 141° |
| 2026-05-01 08:45 | 41.26318 | 28.75403 | 329 ft | 5 kts | 137° |
| 2026-05-01 08:45 | 41.26268 | 28.75440 | 329 ft | 9 kts | 144° |
| 2026-05-01 08:45 | 41.26242 | 28.75507 | 329 ft | 7 kts | 93° |
| 2026-05-01 08:46 | 41.26244 | 28.75602 | 329 ft | 11 kts | 89° |
| 2026-05-01 08:46 | 41.26268 | 28.75658 | 329 ft | 6 kts | 23° |
| 2026-05-01 08:46 | 41.26310 | 28.75666 | 329 ft | 5 kts | 358° |
| 2026-05-01 08:46 | 41.26322 | 28.75665 | 329 ft | 0 kts | 358° |
| 2026-05-01 08:47 | 41.26362 | 28.75664 | 329 ft | 12 kts | 359° |
| 2026-05-01 08:48 | 41.26587 | 28.75659 | 327 ft | 68 kts | 360° |
| 2026-05-01 08:48 | 41.27348 | 28.75642 | 318 ft | 147 kts | 0° |
| 2026-05-01 08:48 | 41.28548 | 28.75600 | 691 ft | 186 kts | 2° |
| 2026-05-01 08:48 | 41.29787 | 28.75849 | 1797 ft | 185 kts | 27° |
| 2026-05-01 08:49 | 41.30830 | 28.76748 | 2705 ft | 187 kts | 34° |
| 2026-05-01 08:49 | 41.31974 | 28.77736 | 3358 ft | 204 kts | 33° |
| 2026-05-01 08:49 | 41.33229 | 28.78746 | 4039 ft | 221 kts | 31° |
| 2026-05-01 08:49 | 41.34616 | 28.79788 | 4729 ft | 237 kts | 30° |
| 2026-05-01 08:50 | 41.36062 | 28.80860 | 5686 ft | 242 kts | 30° |
| 2026-05-01 08:50 | 41.37550 | 28.81919 | 6612 ft | 248 kts | 23° |
| 2026-05-01 08:50 | 41.39254 | 28.82399 | 7445 ft | 259 kts | 2° |
| 2026-05-01 08:50 | 41.41074 | 28.82243 | 8387 ft | 264 kts | 356° |
| 2026-05-01 08:51 | 41.42911 | 28.81999 | 9281 ft | 270 kts | 355° |
| 2026-05-01 08:51 | 41.44770 | 28.81760 | 10118 ft | 276 kts | 355° |
| 2026-05-01 08:51 | 41.46724 | 28.81516 | 10835 ft | 288 kts | 354° |
| 2026-05-01 08:51 | 41.48772 | 28.81260 | 11393 ft | 304 kts | 352° |
| 2026-05-01 08:52 | 41.50829 | 28.80457 | 11901 ft | 320 kts | 331° |
| 2026-05-01 08:52 | 41.52578 | 28.78503 | 12410 ft | 337 kts | 307° |
| 2026-05-01 08:52 | 41.53811 | 28.75768 | 13011 ft | 352 kts | 298° |
| 2026-05-01 08:52 | 41.54951 | 28.72838 | 13740 ft | 363 kts | 297° |